createdAt,value
2018-12-03T00:00:52.704Z,41.27
2018-12-03T00:03:26.364Z,41.27
2018-12-03T00:06:00.293Z,41.30
2018-12-03T00:08:33.796Z,41.32
2018-12-03T00:11:06.264Z,41.32
2018-12-03T00:13:39.722Z,41.32
2018-12-03T00:16:13.695Z,41.39
2018-12-03T00:18:47.302Z,41.39
2018-12-03T00:21:20.711Z,41.36
2018-12-03T00:23:54.576Z,41.35
2018-12-03T00:26:27.883Z,41.35
2018-12-03T00:29:00.408Z,41.36
2018-12-03T00:31:33.989Z,41.34
2018-12-03T00:34:07.567Z,41.37
2018-12-03T00:36:40.864Z,41.37
2018-12-03T00:39:14.458Z,41.40
2018-12-03T00:41:48.800Z,41.41
2018-12-03T00:44:22.646Z,41.46
2018-12-03T00:46:56.351Z,41.46
2018-12-03T00:49:30.309Z,41.47
2018-12-03T00:52:03.772Z,41.49
2018-12-03T00:54:37.792Z,41.47
2018-12-03T00:57:13.093Z,41.44
2018-12-03T00:59:47.298Z,41.46
2018-12-03T01:02:27.646Z,41.48
2018-12-03T01:05:01.294Z,41.52
2018-12-03T01:07:28.912Z,41.54
2018-12-03T01:10:02.369Z,41.57
2018-12-03T01:12:35.692Z,41.53
2018-12-03T01:15:11.522Z,41.62
2018-12-03T01:17:45.574Z,41.62
2018-12-03T01:20:19.408Z,41.57
2018-12-03T01:22:52.996Z,41.55
2018-12-03T01:25:26.522Z,41.58
2018-12-03T01:27:59.871Z,41.55
2018-12-03T01:30:31.948Z,41.56
2018-12-03T01:33:05.537Z,41.57
2018-12-03T01:35:39.023Z,41.59
2018-12-03T01:40:42.527Z,41.59
2018-12-03T01:43:16.865Z,41.61
2018-12-03T01:45:50.531Z,41.66
2018-12-03T01:48:23.994Z,41.65
2018-12-03T01:50:57.234Z,41.67
2018-12-03T01:53:30.546Z,41.62
2018-12-03T01:59:20.295Z,41.16
2018-12-03T02:01:54.017Z,41.37
2018-12-03T02:04:27.830Z,41.49
2018-12-03T02:07:00.107Z,41.54
2018-12-03T02:09:33.593Z,41.62
2018-12-03T02:12:06.744Z,41.66
2018-12-03T02:14:39.219Z,41.68
2018-12-03T02:19:49.279Z,41.82
2018-12-03T02:22:23.055Z,41.67
2018-12-03T02:24:56.226Z,41.69
2018-12-03T02:30:08.514Z,41.70
2018-12-03T02:32:42.303Z,41.70
2018-12-03T02:35:17.291Z,41.70
2018-12-03T02:37:50.703Z,41.71
2018-12-03T02:40:24.323Z,41.58
2018-12-03T02:42:57.469Z,41.58
2018-12-03T02:45:30.866Z,41.73
2018-12-03T02:50:36.526Z,41.72
2018-12-03T02:53:10.712Z,41.72
2018-12-03T02:55:44.687Z,41.72
2018-12-03T02:58:13.407Z,41.72
2018-12-03T03:00:46.909Z,41.70
2018-12-03T03:03:20.234Z,41.70
2018-12-03T03:05:54.304Z,41.70
2018-12-03T03:11:04.813Z,41.79
2018-12-03T03:13:37.125Z,41.79
2018-12-03T03:16:10.688Z,41.80
2018-12-03T03:18:44.290Z,41.79
2018-12-03T03:21:17.719Z,41.77
2018-12-03T03:23:51.535Z,41.70
2018-12-03T03:26:21.642Z,41.70
2018-12-03T03:28:56.017Z,41.82
2018-12-03T03:31:29.550Z,41.82
2018-12-03T03:34:03.337Z,41.84
2018-12-03T03:36:35.399Z,41.84
2018-12-03T03:39:11.506Z,41.88
2018-12-03T03:41:45.312Z,41.89
2018-12-03T03:44:18.651Z,41.89
2018-12-03T03:46:52.298Z,41.88
2018-12-03T03:49:25.696Z,41.87
2018-12-03T03:51:59.303Z,41.89
2018-12-03T03:54:32.706Z,41.89
2018-12-03T03:59:43.319Z,41.85
2018-12-03T04:02:16.895Z,41.91
2018-12-03T04:04:49.105Z,41.91
2018-12-03T04:09:55.314Z,42.05
2018-12-03T04:12:29.389Z,42.05
2018-12-03T04:15:03.279Z,42.02
2018-12-03T04:20:23.522Z,41.98
2018-12-03T04:22:58.477Z,41.99
2018-12-03T04:25:31.893Z,41.98
2018-12-03T04:30:41.707Z,41.85
2018-12-03T04:33:16.321Z,41.84
2018-12-03T04:35:49.654Z,41.80
2018-12-03T04:41:00.064Z,41.73
2018-12-03T04:43:33.772Z,41.73
2018-12-03T04:46:07.326Z,41.73
2018-12-03T04:48:40.663Z,41.73
2018-12-03T04:51:14.284Z,41.78
2018-12-03T04:53:47.699Z,41.77
2018-12-03T04:56:21.096Z,41.79
2018-12-03T04:58:54.505Z,41.85
2018-12-03T05:01:27.883Z,42.09
2018-12-03T05:04:00.344Z,41.98
2018-12-03T05:09:05.713Z,42.13
2018-12-03T05:11:39.759Z,42.18
2018-12-03T05:14:13.281Z,42.28
2018-12-03T05:21:05.396Z,42.06
2018-12-03T05:23:36.741Z,42.21
2018-12-03T05:26:08.002Z,42.35
2018-12-03T05:28:39.509Z,42.35
2018-12-03T05:31:10.821Z,42.42
2018-12-03T05:33:42.676Z,42.53
2018-12-03T05:36:14.319Z,42.30
2018-12-03T05:38:45.709Z,42.30
2018-12-03T05:41:17.340Z,42.28
2018-12-03T05:43:48.733Z,42.27
2018-12-03T05:46:19.885Z,42.28
2018-12-03T05:48:50.420Z,42.28
2018-12-03T05:51:21.717Z,42.21
2018-12-03T05:53:53.007Z,42.08
2018-12-03T05:56:24.437Z,42.08
2018-12-03T05:58:55.700Z,42.13
2018-12-03T06:01:26.855Z,42.09
2018-12-03T06:03:57.451Z,42.06
2018-12-03T06:06:28.726Z,42.06
2018-12-03T06:08:59.886Z,41.92
2018-12-03T06:11:30.413Z,41.92
2018-12-03T06:14:01.708Z,41.95
2018-12-03T06:16:32.867Z,41.96
2018-12-03T06:19:04.077Z,41.96
2018-12-03T06:21:35.545Z,41.87
2018-12-03T06:24:07.032Z,41.90
2018-12-03T06:26:38.645Z,41.88
2018-12-03T06:29:10.040Z,41.85
2018-12-03T06:31:41.671Z,41.79
2018-12-03T06:34:12.856Z,41.77
2018-12-03T06:36:43.444Z,41.69
2018-12-03T06:39:14.707Z,41.74
2018-12-03T06:41:48.731Z,41.69
2018-12-03T06:44:20.069Z,41.63
2018-12-03T06:46:52.011Z,41.63
2018-12-03T06:49:23.528Z,41.71
2018-12-03T06:51:54.762Z,41.70
2018-12-03T06:54:25.664Z,41.69
2018-12-03T06:56:56.874Z,41.66
2018-12-03T06:59:27.949Z,41.66
2018-12-03T07:01:59.333Z,41.67
2018-12-03T07:04:30.678Z,41.69
2018-12-03T07:07:02.044Z,41.62
2018-12-03T07:09:34.535Z,41.62
2018-12-03T07:12:05.852Z,41.69
2018-12-03T07:14:36.421Z,41.79
2018-12-03T07:17:08.281Z,41.79
2018-12-03T07:19:39.738Z,41.79
2018-12-03T07:22:11.627Z,41.85
2018-12-03T07:24:42.858Z,41.85
2018-12-03T07:27:13.446Z,41.85
2018-12-03T07:29:45.030Z,41.84
2018-12-03T07:32:16.704Z,41.83
2018-12-03T07:34:48.059Z,41.83
2018-12-03T07:37:19.768Z,41.82
2018-12-03T07:39:51.071Z,41.83
2018-12-03T07:42:22.572Z,41.83
2018-12-03T07:44:54.345Z,41.82
2018-12-03T07:47:25.717Z,41.77
2018-12-03T07:49:57.036Z,41.77
2018-12-03T07:52:29.081Z,41.76
2018-12-03T07:55:00.580Z,41.74
2018-12-03T07:57:31.837Z,41.73
2018-12-03T08:00:03.077Z,41.72
2018-12-03T08:02:34.589Z,41.65
2018-12-03T08:05:06.777Z,41.65
2018-12-03T08:07:38.329Z,41.49
2018-12-03T08:10:17.877Z,41.49
2018-12-03T08:12:49.554Z,41.63
2018-12-03T08:15:22.313Z,41.63
2018-12-03T08:18:03.279Z,41.61
2018-12-03T08:21:07.032Z,41.58
2018-12-03T08:24:10.683Z,41.63
2018-12-03T08:26:42.039Z,41.66
2018-12-03T08:29:14.042Z,41.64
2018-12-03T08:31:45.523Z,41.65
2018-12-03T08:34:17.445Z,41.59
2018-12-03T08:36:48.747Z,41.57
2018-12-03T08:39:20.083Z,41.55
2018-12-03T08:41:52.079Z,41.55
2018-12-03T08:44:25.602Z,41.54
2018-12-03T08:46:58.690Z,41.54
2018-12-03T08:49:30.077Z,41.53
2018-12-03T08:52:02.005Z,41.53
2018-12-03T08:54:33.580Z,41.53
2018-12-03T08:57:05.333Z,41.58
2018-12-03T08:59:36.775Z,41.58
2018-12-03T09:02:08.281Z,41.63
2018-12-03T09:04:39.707Z,41.63
2018-12-03T09:07:11.383Z,41.65
2018-12-03T09:09:42.753Z,41.64
2018-12-03T09:12:14.484Z,41.82
2018-12-03T09:14:45.697Z,41.82
2018-12-03T09:17:16.602Z,41.83
2018-12-03T09:19:52.692Z,41.80
2018-12-03T09:22:23.912Z,41.86
2018-12-03T09:24:54.445Z,41.88
2018-12-03T09:27:25.716Z,41.84
2018-12-03T09:30:00.676Z,41.83
2018-12-03T09:32:36.320Z,41.79
2018-12-03T09:35:12.854Z,41.86
2018-12-03T09:37:43.530Z,41.87
2018-12-03T09:40:28.481Z,41.88
2018-12-03T09:42:59.994Z,41.92
2018-12-03T09:45:31.657Z,41.91
2018-12-03T09:48:03.282Z,41.83
2018-12-03T09:50:34.721Z,41.80
2018-12-03T09:53:06.292Z,41.81
2018-12-03T09:55:37.748Z,41.80
2018-12-03T09:58:12.070Z,41.80
2018-12-03T10:00:44.018Z,41.80
2018-12-03T10:03:29.039Z,41.73
2018-12-03T10:06:13.514Z,41.78
2018-12-03T10:08:44.814Z,41.76
2018-12-03T10:11:15.452Z,41.75
2018-12-03T10:13:46.745Z,41.72
2018-12-03T10:16:17.621Z,41.68
2018-12-03T10:18:51.404Z,41.66
2018-12-03T10:21:22.686Z,41.68
2018-12-03T10:23:54.037Z,41.78
2018-12-03T10:26:25.652Z,41.78
2018-12-03T10:28:57.028Z,41.65
2018-12-03T10:31:28.639Z,41.64
2018-12-03T10:33:59.891Z,41.65
2018-12-03T10:36:30.441Z,41.65
2018-12-03T10:39:01.661Z,41.62
2018-12-03T10:41:34.361Z,41.66
2018-12-03T10:44:06.317Z,41.62
2018-12-03T10:46:37.699Z,41.62
2018-12-03T10:49:11.349Z,41.59
2018-12-03T10:51:42.718Z,41.57
2018-12-03T10:54:14.700Z,41.62
2018-12-03T10:56:47.323Z,41.62
2018-12-03T10:59:19.078Z,41.59
2018-12-03T11:02:14.804Z,41.60
2018-12-03T11:05:04.567Z,41.55
2018-12-03T11:07:35.507Z,41.59
2018-12-03T11:10:08.712Z,41.68
2018-12-03T11:12:40.571Z,41.62
2018-12-03T11:15:18.312Z,41.66
2018-12-03T11:17:49.661Z,41.74
2018-12-03T11:20:20.921Z,41.67
2018-12-03T11:22:52.312Z,41.73
2018-12-03T11:25:37.010Z,41.74
2018-12-03T11:28:13.313Z,41.74
2018-12-03T11:30:58.317Z,41.77
2018-12-03T11:33:30.725Z,41.79
2018-12-03T11:36:02.725Z,41.76
2018-12-03T11:38:54.312Z,41.78
2018-12-03T11:41:25.720Z,41.78
2018-12-03T11:43:56.908Z,41.74
2018-12-03T11:46:27.437Z,41.74
2018-12-03T11:48:58.717Z,41.73
2018-12-03T11:51:29.875Z,41.59
2018-12-03T11:54:01.110Z,41.59
2018-12-03T11:56:32.674Z,41.71
2018-12-03T11:59:03.813Z,41.66
2018-12-03T12:01:35.068Z,41.63
2018-12-03T12:04:06.841Z,41.63
2018-12-03T12:06:37.361Z,41.79
2018-12-03T12:09:13.349Z,41.79
2018-12-03T12:11:45.312Z,41.66
2018-12-03T12:14:32.549Z,41.65
2018-12-03T12:17:03.836Z,41.63
2018-12-03T12:19:35.085Z,41.43
2018-12-03T12:22:06.781Z,41.43
2018-12-03T12:24:38.017Z,41.63
2018-12-03T12:27:11.312Z,41.63
2018-12-03T12:29:42.704Z,41.62
2018-12-03T12:32:14.074Z,41.63
2018-12-03T12:34:46.374Z,41.63
2018-12-03T12:37:17.736Z,41.65
2018-12-03T12:39:49.028Z,41.61
2018-12-03T12:42:20.536Z,41.61
2018-12-03T12:44:51.829Z,41.58
2018-12-03T12:47:22.452Z,41.63
2018-12-03T12:49:53.661Z,41.63
2018-12-03T12:52:24.908Z,41.67
2018-12-03T12:54:55.415Z,41.65
2018-12-03T12:57:26.687Z,41.62
2018-12-03T12:59:57.854Z,41.65
2018-12-03T13:02:28.404Z,41.66
2018-12-03T13:04:59.700Z,41.66
2018-12-03T13:07:31.024Z,41.67
2018-12-03T13:10:02.511Z,41.74
2018-12-03T13:12:33.892Z,41.76
2018-12-03T13:15:04.444Z,41.78
2018-12-03T13:17:35.731Z,41.82
2018-12-03T13:20:16.688Z,41.86
2018-12-03T13:22:48.006Z,41.86
2018-12-03T13:25:23.721Z,41.92
2018-12-03T13:27:56.621Z,41.81
2018-12-03T13:30:27.840Z,41.81
2018-12-03T13:32:58.890Z,41.86
2018-12-03T13:35:29.379Z,41.86
2018-12-03T13:38:00.619Z,41.87
2018-12-03T13:40:31.730Z,41.89
2018-12-03T13:43:02.901Z,41.87
2018-12-03T13:45:33.387Z,41.87
2018-12-03T13:48:04.697Z,41.83
2018-12-03T13:50:35.735Z,41.84
2018-12-03T13:53:06.803Z,42.01
2018-12-03T13:55:37.793Z,41.69
2018-12-03T13:58:10.707Z,41.80
2018-12-03T14:00:41.684Z,42.01
2018-12-03T14:03:31.684Z,42.01
2018-12-03T14:07:27.535Z,41.78
2018-12-03T14:11:06.676Z,41.83
2018-12-03T14:14:36.486Z,41.89
2018-12-03T14:17:35.858Z,41.91
2018-12-03T14:20:07.312Z,41.93
2018-12-03T14:23:00.509Z,41.88
2018-12-03T14:25:31.771Z,41.87
2018-12-03T14:28:02.819Z,41.82
2018-12-03T14:30:33.789Z,41.88
2018-12-03T14:33:04.876Z,41.78
2018-12-03T14:35:35.254Z,41.78
2018-12-03T14:38:06.662Z,41.78
2018-12-03T14:40:37.671Z,41.73
2018-12-03T14:43:08.827Z,41.74
2018-12-03T14:45:40.535Z,41.77
2018-12-03T14:48:12.054Z,41.74
2018-12-03T14:50:43.364Z,41.76
2018-12-03T14:53:14.593Z,41.74
2018-12-03T14:55:45.623Z,41.70
2018-12-03T14:58:16.696Z,41.73
2018-12-03T15:00:50.756Z,41.74
2018-12-03T15:03:22.721Z,41.73
2018-12-03T15:05:54.090Z,40.05
2018-12-03T15:08:25.700Z,40.05
2018-12-03T15:10:57.000Z,38.54
2018-12-03T15:13:28.504Z,33.02
2018-12-03T15:15:59.862Z,25.92
2018-12-03T15:18:31.057Z,22.36
2018-12-03T15:21:02.585Z,21.09
2018-12-03T15:23:33.818Z,20.60
2018-12-03T15:26:04.942Z,20.59
2018-12-03T15:28:36.302Z,20.96
2018-12-03T15:31:07.720Z,21.59
2018-12-03T15:33:39.028Z,23.19
2018-12-03T15:36:12.167Z,23.19
2018-12-03T15:38:43.695Z,23.98
2018-12-03T15:41:15.057Z,24.83
2018-12-03T15:43:46.828Z,25.66
2018-12-03T15:46:17.478Z,27.33
2018-12-03T15:48:49.014Z,27.33
2018-12-03T15:51:21.272Z,27.94
2018-12-03T15:53:53.060Z,28.64
2018-12-03T15:56:24.933Z,29.30
2018-12-03T15:58:56.709Z,29.93
2018-12-03T16:01:28.394Z,31.11
2018-12-03T16:03:59.669Z,31.11
2018-12-03T16:06:31.514Z,31.65
2018-12-03T16:09:03.800Z,32.17
2018-12-03T16:11:35.065Z,32.94
2018-12-03T16:14:06.528Z,32.94
2018-12-03T16:16:37.869Z,33.50
2018-12-03T16:19:08.479Z,33.90
2018-12-03T16:21:40.406Z,34.30
2018-12-03T16:24:12.309Z,34.68
2018-12-03T16:26:44.303Z,35.00
2018-12-03T16:29:15.680Z,35.34
2018-12-03T16:31:46.875Z,35.64
2018-12-03T16:34:17.389Z,35.92
2018-12-03T16:36:48.712Z,36.10
2018-12-03T16:39:19.841Z,36.29
2018-12-03T16:41:50.460Z,36.69
2018-12-03T16:44:22.305Z,36.69
2018-12-03T16:46:54.300Z,36.99
2018-12-03T16:49:25.719Z,37.17
2018-12-03T16:51:57.016Z,37.56
2018-12-03T16:54:28.531Z,37.56
2018-12-03T16:56:59.895Z,37.77
2018-12-03T16:59:30.407Z,37.90
2018-12-03T17:02:01.773Z,38.05
2018-12-03T17:04:32.720Z,38.20
2018-12-03T17:07:25.003Z,38.50
2018-12-03T17:09:56.351Z,38.50
2018-12-03T17:12:31.524Z,38.69
2018-12-03T17:15:03.634Z,38.82
2018-12-03T17:17:34.720Z,38.95
2018-12-03T17:20:29.510Z,39.18
2018-12-03T17:23:54.876Z,39.18
2018-12-03T17:26:25.377Z,39.32
2018-12-03T17:28:56.716Z,39.52
2018-12-03T17:31:28.359Z,39.63
2018-12-03T17:33:59.832Z,39.63
2018-12-03T17:36:30.270Z,39.66
2018-12-03T17:39:01.604Z,39.73
2018-12-03T17:41:33.447Z,39.79
2018-12-03T17:44:05.480Z,39.82
2018-12-03T17:46:36.902Z,39.89
2018-12-03T17:49:07.287Z,39.96
2018-12-03T17:51:38.649Z,40.01
2018-12-03T17:54:10.696Z,40.07
2018-12-03T17:56:42.516Z,40.12
2018-12-03T17:59:13.713Z,40.14
2018-12-03T18:01:44.787Z,40.19
2018-12-03T18:04:16.656Z,40.25
2018-12-03T18:06:48.395Z,40.25
2018-12-03T18:09:19.744Z,40.30
2018-12-03T18:11:51.324Z,40.42
2018-12-03T18:14:22.676Z,40.42
2018-12-03T18:16:53.757Z,40.35
2018-12-03T18:19:24.722Z,40.42
2018-12-03T18:21:56.038Z,40.45
2018-12-03T18:24:27.548Z,40.45
2018-12-03T18:26:58.647Z,40.49
2018-12-03T18:29:30.320Z,40.50
2018-12-03T18:32:01.686Z,40.61
2018-12-03T18:34:32.702Z,40.62
2018-12-03T18:37:03.695Z,40.60
2018-12-03T18:39:35.297Z,40.61
2018-12-03T18:42:06.651Z,40.64
2018-12-03T18:44:37.690Z,40.70
2018-12-03T18:47:08.696Z,40.76
2018-12-03T18:49:46.713Z,40.80
2018-12-03T18:52:20.072Z,41.01
2018-12-03T18:54:52.089Z,41.01
2018-12-03T18:57:23.713Z,40.96
2018-12-03T18:59:55.063Z,41.08
2018-12-03T19:02:26.681Z,41.08
2018-12-03T19:04:57.881Z,41.16
2018-12-03T19:07:28.454Z,41.18
2018-12-03T19:09:59.873Z,39.60
2018-12-03T19:12:30.634Z,35.36
2018-12-03T19:15:01.889Z,31.65
2018-12-03T19:17:32.517Z,28.70
2018-12-03T19:20:04.332Z,26.55
2018-12-03T19:22:35.720Z,26.07
2018-12-03T19:25:07.864Z,27.14
2018-12-03T19:27:38.400Z,27.14
2018-12-03T19:30:14.063Z,27.80
2018-12-03T19:32:45.457Z,28.63
2018-12-03T19:35:16.728Z,29.49
2018-12-03T19:37:47.696Z,30.28
2018-12-03T19:40:18.664Z,31.05
2018-12-03T19:42:50.100Z,31.78
2018-12-03T19:45:21.623Z,32.37
2018-12-03T19:47:53.310Z,33.01
2018-12-03T19:50:24.700Z,33.56
2018-12-03T19:52:56.943Z,34.08
2018-12-03T19:55:29.699Z,34.41
2018-12-03T19:58:13.866Z,34.83
2018-12-03T20:00:45.571Z,35.43
2018-12-03T20:03:16.625Z,35.82
2018-12-03T20:05:47.702Z,36.19
2018-12-03T20:08:18.660Z,36.60
2018-12-03T20:10:49.722Z,36.96
2018-12-03T20:13:20.928Z,37.42
2018-12-03T20:15:52.357Z,37.42
2018-12-03T20:18:23.692Z,37.82
2018-12-03T20:21:24.675Z,38.07
2018-12-03T20:24:08.664Z,38.27
2018-12-03T20:27:46.495Z,38.54
2018-12-03T20:31:11.802Z,38.73
2018-12-03T20:34:12.420Z,39.01
2018-12-03T20:37:43.831Z,39.20
2018-12-03T20:40:29.416Z,39.37
2018-12-03T20:43:29.400Z,39.61
2018-12-03T20:46:44.636Z,39.75
2018-12-03T20:50:19.599Z,39.87
2018-12-03T20:52:52.329Z,40.07
2018-12-03T20:55:38.728Z,40.22
2018-12-03T20:58:27.588Z,40.34
2018-12-03T21:02:00.273Z,40.34
2018-12-03T21:04:31.733Z,40.45
2018-12-03T21:07:03.068Z,40.63
2018-12-03T21:09:34.536Z,40.63
2018-12-03T21:12:06.515Z,40.58
2018-12-03T21:14:38.051Z,40.60
2018-12-03T21:17:10.443Z,40.62
2018-12-03T21:19:43.722Z,40.64
2018-12-03T21:22:14.988Z,40.57
2018-12-03T21:24:46.550Z,40.57
2018-12-03T21:27:18.406Z,40.74
2018-12-03T21:29:49.831Z,40.74
2018-12-03T21:32:20.471Z,40.76
2018-12-03T21:34:52.394Z,40.77
2018-12-03T21:37:23.710Z,40.80
2018-12-03T21:39:55.541Z,40.82
2018-12-03T21:42:26.723Z,40.83
2018-12-03T21:44:58.060Z,40.86
2018-12-03T21:47:29.536Z,40.86
2018-12-03T21:50:04.317Z,40.86
2018-12-03T21:52:34.046Z,40.91
2018-12-03T21:55:06.101Z,40.91
2018-12-03T21:57:38.446Z,40.91
2018-12-03T22:00:13.510Z,40.92
2018-12-03T22:02:44.831Z,40.94
2018-12-03T22:05:16.421Z,40.93
2018-12-03T22:07:47.533Z,40.94
2018-12-03T22:10:18.832Z,40.95
2018-12-03T22:12:49.525Z,40.95
2018-12-03T22:15:21.070Z,40.95
2018-12-03T22:17:55.211Z,40.94
2018-12-03T22:20:27.031Z,40.97
2018-12-03T22:22:58.524Z,40.98
2018-12-03T22:25:29.852Z,40.98
2018-12-03T22:28:00.433Z,41.01
2018-12-03T22:30:32.788Z,41.02
2018-12-03T22:33:04.699Z,41.06
2018-12-03T22:35:36.061Z,41.06
2018-12-03T22:38:08.696Z,41.06
2018-12-03T22:40:39.837Z,41.10
2018-12-03T22:43:10.653Z,41.13
2018-12-03T22:45:41.844Z,41.19
2018-12-03T22:48:12.550Z,41.20
2018-12-03T22:50:43.867Z,41.23
2018-12-03T22:53:14.314Z,41.27
2018-12-03T22:55:45.691Z,41.32
2018-12-03T22:58:16.912Z,41.34
2018-12-03T23:01:00.073Z,41.40
2018-12-03T23:03:31.520Z,41.43
2018-12-03T23:06:02.873Z,41.48
2018-12-03T23:08:33.423Z,41.48
2018-12-03T23:11:04.636Z,41.51
2018-12-03T23:13:35.889Z,41.55
2018-12-03T23:16:06.455Z,41.61
2018-12-03T23:18:38.325Z,41.64
2018-12-03T23:21:10.075Z,41.65
2018-12-03T23:23:41.651Z,41.70
2018-12-03T23:26:13.312Z,41.72
2018-12-03T23:28:45.306Z,41.76
2018-12-03T23:31:16.697Z,41.80
2018-12-03T23:33:48.031Z,41.81
2018-12-03T23:36:19.709Z,41.85
2018-12-03T23:38:51.039Z,41.86
2018-12-03T23:41:22.695Z,41.86
2018-12-03T23:43:54.310Z,42.08
2018-12-03T23:46:25.841Z,42.08
2018-12-03T23:48:56.518Z,42.03
2018-12-03T23:51:27.832Z,42.04
2018-12-03T23:53:58.514Z,42.08
2018-12-03T23:56:29.835Z,42.13
2018-12-03T23:59:00.413Z,42.15
